Nearby METAR Reports

 

KELM - Elmira, New York, USA
Distance from station: W 13mi, 20km
Updated: Fri, 23-Jun-2017 7:53pm EDT
Partly cloudy
Partly cloudy
 Wind from WSW
Wind: WSW 5 mph , 7 km/h
Temperature: 75°F , 24°C
Dew Point: 75°F , 24°C
Humidity: 100%
Barometer: 29.58 inHg , 1001.7 hPa
Clouds: Partly cloudy
Visibility: 10 miles , 16 km
Cloud details: Partly cloudy 5500 ft
2017/06/23 23:53 KELM 232353Z 25004KT 10SM SCT055 24/24 A2958
KITH - Ithaca/Tompkins, New York, USA
Distance from station: NNE 24mi, 39km
Updated: Fri, 23-Jun-2017 7:55pm EDT
Overcast
Overcast
 Wind from SSW
Wind: SSW 9 mph , 15 km/h
Temperature: 73°F , 23°C
Dew Point: 70°F , 21°C
Humidity: 89%
Barometer: 29.60 inHg , 1002.4 hPa
Clouds: Overcast
Visibility: 10 miles , 16 km
Cloud details: Mostly cloudy 3000 ft
Overcast 9000 ft
2017/06/23 23:55 KITH 232355Z 21008KT 10SM BKN030 OVC090 23/21 A2960
KBGM - Binghamton, New York, USA
Distance from station: E 35mi, 56km
Updated: Fri, 23-Jun-2017 6:53pm EDT
NOT Current
Light rain, Overcast
Light rain, Overcast
 Wind from SW
Wind: SW 8 mph , 13 km/h
Temperature: 73°F , 23°C
Dew Point: 68°F , 20°C
Humidity: 83%
Barometer: 29.61 inHg , 1002.7 hPa
Summary: Light rain
Clouds: Overcast
Visibility: 10 miles , 16 km
Cloud details: Few Clouds 2700 ft
Mostly cloudy 9500 ft
Overcast 12000 ft
2017/06/23 22:53 KBGM 232253Z 22007KT 10SM -RA FEW027 BKN095 OVC120 23/20 A2961
 
KPEO - Penn Yan, New York, USA
Distance from station: NNW 40mi, 64km
Updated: Fri, 23-Jun-2017 7:53pm EDT
Overcast
Overcast
 Wind from SSW
Wind: SSW 12 mph , 19 km/h
Temperature: 75°F , 24°C
Dew Point: 68°F , 20°C
Humidity: 78%
Barometer: 29.57 inHg , 1001.4 hPa
Clouds: Overcast
Visibility: 10 miles , 16 km
Cloud details: Mostly cloudy 3000 ft
Overcast 10000 ft
2017/06/23 23:53 KPEO 232353Z AUTO 20010KT 10SM BKN030 OVC100 24/20 A2957 RMK AO2 SLP006 60000 T02390200 10250 20233 55002
KDSV - Dansville, New York, USA
Distance from station: WNW 61mi, 99km
Updated: Fri, 23-Jun-2017 7:54pm EDT
Overcast
Overcast
 Wind from varies
Wind: varies 3 mph , 6 km/h
Temperature: 77°F , 25°C
Dew Point: 66°F , 19°C
Humidity: 69%
Barometer: 29.58 inHg , 1001.7 hPa
Clouds: Overcast
Visibility: 10 miles , 16 km
Cloud details: Partly cloudy 3200 ft
Mostly cloudy 6000 ft
Overcast 11000 ft
2017/06/23 23:54 KDSV 232354Z AUTO VRB03KT 10SM SCT032 BKN060 OVC110 25/19 A2958 RMK AO2 SLP018 60002 T02500194 10256 20233 53002
KIPT - Williamsport, Pennsylvania, USA
Distance from station: SSW 64mi, 102km
Updated: Fri, 23-Jun-2017 7:54pm EDT
Mostly cloudy
Mostly cloudy
 Wind from WSW
Wind: WSW 6 mph , 9 km/h
Temperature: 79°F , 26°C
Dew Point: 72°F , 22°C
Humidity: 79%
Barometer: 29.60 inHg , 1002.4 hPa
Clouds: Mostly cloudy
Visibility: 10 miles , 16 km
Cloud details: Few Clouds 3700 ft
Mostly cloudy 4600 ft
Mostly cloudy 5500 ft
2017/06/23 23:54 KIPT 232354Z 25005KT 10SM FEW037 BKN046 BKN055 26/22 A2960 RMK AO2 SLP018 60000 T02610217 10283 20261 55005
 
KELZ - Wellsville, New York, USA
Distance from station: W 68mi, 110km
Updated: Fri, 23-Jun-2017 7:56pm EDT
Mostly cloudy
Mostly cloudy
 Wind from WSW
Wind: WSW 9 mph , 15 km/h
Temperature: 72°F , 22°C
Dew Point: 66°F , 19°C
Humidity: 83%
Barometer: 29.66 inHg , 1004.4 hPa
Clouds: Mostly cloudy
Visibility: 10 miles , 16 km
Cloud details: Few Clouds 1900 ft
Mostly cloudy 3000 ft
2017/06/23 23:56 KELZ 232356Z AUTO 24008KT 10SM FEW019 BKN030 22/19 A2966 RMK AO2 SLP029 60034 T02170189 10222 20206 51003
KSYR - Syracuse, New York, USA
Distance from station: NNE 72mi, 117km
Updated: Fri, 23-Jun-2017 7:54pm EDT
Overcast
Overcast
 Wind from SSW
Wind: SSW 9 mph , 15 km/h
Temperature: 77°F , 25°C
Dew Point: 70°F , 21°C
Humidity: 79%
Barometer: 29.52 inHg , 999.7 hPa
Clouds: Overcast
Visibility: 10 miles , 16 km
Cloud details: Partly cloudy 2700 ft
Partly cloudy 3500 ft
Mostly cloudy 14000 ft
Overcast 21000 ft
2017/06/23 23:54 KSYR 232354Z 21008KT 10SM SCT027 SCT035 BKN140 OVC210 25/21 A2952 RMK AO2 SLP990 BINOVC T02500211 10261 20250 56009
KAVP - Avoca/Wilkes B., Pennsylvania, USA
Distance from station: SE 74mi, 120km
Updated: Fri, 23-Jun-2017 7:54pm EDT
Mostly cloudy
Mostly cloudy
 Wind from SSW
Wind: SSW 12 mph , 19 km/h
Temperature: 81°F , 27°C
Heat Index: 85°F , 29°C
Dew Point: 70°F , 21°C
Humidity: 70%
Barometer: 29.63 inHg , 1003.4 hPa
Clouds: Mostly cloudy
Visibility: 10 miles , 16 km
Cloud details: Partly cloudy 3000 ft
Partly cloudy 3500 ft
Mostly cloudy 11000 ft
2017/06/23 23:54 KAVP 232354Z 21010KT 10SM SCT030 SCT035 BKN110 27/21 A2963 RMK AO2 SLP023 T02670211 10278 20250 55010 $